Time;durP1;ratioP1;P1;durP2;ratioP2;P2;SDS_P1;SDS_P2;PMS_P1;PMS_P2;Temp;Humidity;BMP_temperature;BMP_pressure;BME280_temperature;BME280_humidity;BME280_pressure;Samples;Min_cycle;Max_cycle;Signal;HPM_P1;HPM_P2
2022/05/23 00:01:04;;;;;;;20.20;10.13;;;20.40;99.90;;;;;;5100858;28;20024;-76
2022/05/23 00:03:31;;;;;;;17.70;9.48;;;20.40;99.90;;;;;;5096871;28;20028;-76
2022/05/23 00:05:58;;;;;;;20.30;8.82;;;20.40;99.90;;;;;;5101121;28;20392;-76
2022/05/23 00:08:25;;;;;;;18.20;9.30;;;20.40;99.90;;;;;;5099512;28;20036;-77
2022/05/23 00:10:51;;;;;;;21.00;9.32;;;20.40;99.90;;;;;;5100784;28;20016;-75
2022/05/23 00:13:17;;;;;;;19.00;9.68;;;20.30;99.90;;;;;;5101039;28;20020;-76
2022/05/23 00:15:43;;;;;;;13.77;8.07;;;20.30;99.90;;;;;;5090920;28;20067;-76
2022/05/23 00:18:09;;;;;;;18.77;8.45;;;20.20;99.90;;;;;;5087862;28;20024;-77
2022/05/23 00:20:35;;;;;;;21.10;9.48;;;20.10;99.90;;;;;;5100687;28;20031;-77
2022/05/23 00:23:01;;;;;;;25.35;9.00;;;19.90;99.90;;;;;;5100932;28;20024;-75
2022/05/23 00:25:27;;;;;;;16.52;9.40;;;19.80;99.90;;;;;;5099223;28;20103;-78
2022/05/23 00:27:53;;;;;;;20.88;9.75;;;19.80;99.90;;;;;;5100507;28;20020;-76
2022/05/23 00:30:23;;;;;;;22.88;9.63;;;19.80;99.90;;;;;;5099178;28;20487;-77
2022/05/23 00:35:34;;;;;;;24.77;10.75;;;19.80;99.90;;;;;;5100563;28;20454;-78
2022/05/23 00:38:01;;;;;;;20.63;8.82;;;19.80;99.90;;;;;;5100304;28;20024;-76
2022/05/23 00:40:41;;;;;;;17.35;9.27;;;19.80;99.90;;;;;;5086395;28;20022;-77
2022/05/23 00:43:20;;;;;;;;;;;19.80;99.90;;;;;;5096163;28;20035;-76
2022/05/23 00:45:47;;;;;;;15.90;8.73;;;19.80;99.90;;;;;;5098863;28;19923;-76
2022/05/23 00:48:15;;;;;;;18.77;8.88;;;19.80;99.90;;;;;;5098411;28;20099;-76
2022/05/23 00:50:44;;;;;;;25.67;10.20;;;19.80;99.90;;;;;;5100440;28;20468;-76
2022/05/23 00:53:11;;;;;;;16.98;9.98;;;19.70;99.90;;;;;;5099888;28;20016;-77
2022/05/23 00:55:41;;;;;;;23.67;11.57;;;19.50;99.90;;;;;;5100088;28;20379;-77
2022/05/23 00:58:30;;;;;;;30.75;11.07;;;19.20;99.90;;;;;;5098537;28;20028;-74
2022/05/23 01:01:01;;;;;;;17.70;10.70;;;19.10;99.90;;;;;;5098124;28;20040;-72
2022/05/23 01:03:27;;;;;;;;;;;19.10;99.90;;;;;;5099987;28;20095;-72
2022/05/23 01:05:54;;;;;;;26.50;10.52;;;19.10;99.90;;;;;;5099924;28;20397;-73
2022/05/23 01:08:21;;;;;;;20.73;8.63;;;19.20;99.90;;;;;;5099828;28;20020;-75
2022/05/23 01:10:47;;;;;;;19.85;9.40;;;19.20;99.90;;;;;;5098334;28;20487;-72
2022/05/23 01:13:15;;;;;;;17.13;8.18;;;19.20;99.90;;;;;;5099905;28;20024;-74
2022/05/23 01:15:45;;;;;;;18.50;8.45;;;19.20;99.90;;;;;;5090234;28;20016;-73
2022/05/23 01:18:11;;;;;;;17.30;9.60;;;19.20;99.90;;;;;;5085851;28;20058;-73
2022/05/23 01:20:37;;;;;;;18.55;8.15;;;19.20;99.90;;;;;;5098115;28;20376;-75
2022/05/23 01:23:16;;;;;;;23.02;9.27;;;19.10;99.90;;;;;;5098492;28;20093;-75
2022/05/23 01:25:45;;;;;;;21.23;8.43;;;19.10;99.90;;;;;;5099366;28;20031;-76
2022/05/23 01:28:11;;;;;;;19.95;8.13;;;19.10;99.90;;;;;;5099262;28;20024;-74
2022/05/23 01:30:40;;;;;;;21.08;8.93;;;19.00;99.90;;;;;;5098013;28;20027;-76
2022/05/23 01:33:07;;;;;;;26.08;7.90;;;19.00;99.90;;;;;;5099035;28;20023;-76
2022/05/23 01:35:33;;;;;;;22.80;9.02;;;19.00;99.90;;;;;;5098068;28;20029;-75
2022/05/23 01:37:59;;;;;;;22.70;7.75;;;19.00;99.90;;;;;;5098170;28;20024;-75
2022/05/23 01:40:26;;;;;;;17.13;7.97;;;19.00;99.90;;;;;;5084383;28;20028;-75
2022/05/23 01:42:52;;;;;;;17.58;7.93;;;19.00;99.90;;;;;;5099123;28;20103;-75
2022/05/23 01:45:23;;;;;;;17.88;7.57;;;19.00;99.90;;;;;;5098999;28;20024;-75
2022/05/23 01:47:49;;;;;;;16.58;7.53;;;19.00;99.90;;;;;;5098697;28;20123;-73
2022/05/23 01:50:15;;;;;;;21.05;8.90;;;19.00;99.90;;;;;;5097768;28;20058;-75
2022/05/23 01:52:41;;;;;;;17.75;7.80;;;18.90;99.90;;;;;;5098810;28;20070;-74
2022/05/23 01:55:08;;;;;;;25.75;7.68;;;19.00;99.90;;;;;;5098819;28;20024;-75
2022/05/23 01:57:34;;;;;;;15.48;6.97;;;18.90;99.90;;;;;;5099002;28;20020;-74
2022/05/23 02:02:47;;;;;;;15.23;6.68;;;18.90;99.90;;;;;;5098591;28;20035;-74
2022/05/23 02:05:15;;;;;;;14.65;6.43;;;18.90;99.90;;;;;;5098742;28;20020;-76
2022/05/23 02:07:42;;;;;;;13.57;5.90;;;18.90;99.90;;;;;;5098417;28;20055;-74
2022/05/23 02:10:09;;;;;;;14.48;7.05;;;18.90;99.90;;;;;;5097281;28;20065;-76
2022/05/23 02:12:36;;;;;;;14.80;6.93;;;18.90;99.90;;;;;;5097803;28;20066;-76
2022/05/23 02:15:02;;;;;;;12.43;6.65;;;18.90;99.90;;;;;;5095946;28;20468;-74
2022/05/23 02:17:28;;;;;;;21.15;6.93;;;18.80;99.90;;;;;;5093694;28;20021;-75
2022/05/23 02:19:54;;;;;;;21.85;7.32;;;18.80;99.90;;;;;;5097355;28;20111;-77
2022/05/23 02:22:20;;;;;;;18.50;7.00;;;18.80;99.90;;;;;;5096933;28;20063;-74
2022/05/23 02:24:46;;;;;;;15.98;6.90;;;18.80;99.90;;;;;;5097283;28;20023;-75
2022/05/23 02:27:12;;;;;;;15.48;6.65;;;18.80;99.90;;;;;;5098143;28;20441;-75
2022/05/23 02:29:38;;;;;;;15.60;7.03;;;18.80;99.90;;;;;;5098142;28;20036;-74
2022/05/23 02:32:05;;;;;;;10.95;6.00;;;18.80;99.90;;;;;;5096403;28;20089;-74
2022/05/23 02:34:31;;;;;;;15.82;6.80;;;18.90;99.90;;;;;;5098427;28;20027;-74
2022/05/23 02:36:57;;;;;;;21.17;6.05;;;18.90;99.90;;;;;;5097904;28;20030;-74
2022/05/23 02:39:22;;;;;;;15.73;6.50;;;18.90;99.90;;;;;;5088945;28;20020;-76
2022/05/23 02:41:50;;;;;;;10.55;5.75;;;18.80;99.90;;;;;;5093184;28;20036;-75
2022/05/23 02:44:16;;;;;;;18.95;7.15;;;18.80;99.90;;;;;;5096562;28;20107;-74
2022/05/23 02:46:42;;;;;;;16.80;7.55;;;18.90;99.90;;;;;;5097467;28;20156;-76
2022/05/23 02:49:10;;;;;;;15.95;6.28;;;18.80;99.90;;;;;;5097796;28;20568;-74
2022/05/23 02:51:36;;;;;;;16.77;6.20;;;18.80;99.90;;;;;;5092121;28;20016;-75
2022/05/23 02:54:03;;;;;;;16.70;5.88;;;18.80;99.90;;;;;;5096529;28;20037;-75
2022/05/23 02:56:29;;;;;;;16.50;5.85;;;18.70;99.90;;;;;;5097740;28;20097;-76
2022/05/23 02:58:55;;;;;;;18.48;7.05;;;18.70;99.90;;;;;;5097621;28;20032;-74
2022/05/23 03:01:21;;;;;;;15.15;5.93;;;18.70;99.90;;;;;;5097352;28;20043;-75
2022/05/23 03:03:47;;;;;;;17.52;6.28;;;18.70;99.90;;;;;;5096313;28;20107;-75
2022/05/23 03:06:12;;;;;;;15.20;6.10;;;18.60;99.90;;;;;;5096400;28;20039;-75
2022/05/23 03:08:39;;;;;;;17.20;6.97;;;18.60;99.90;;;;;;5096052;28;20376;-74
2022/05/23 03:11:08;;;;;;;17.02;5.25;;;18.60;99.90;;;;;;5097414;28;20020;-75
2022/05/23 03:13:37;;;;;;;17.25;7.63;;;18.60;99.90;;;;;;5097627;28;20016;-75
2022/05/23 03:16:11;;;;;;;17.23;5.57;;;18.60;99.90;;;;;;5089347;28;20020;-76
2022/05/23 03:18:37;;;;;;;10.52;5.45;;;18.60;99.90;;;;;;5097549;28;20077;-75
2022/05/23 03:21:07;;;;;;;12.13;4.32;;;18.50;99.90;;;;;;5097308;28;20081;-75
2022/05/23 03:29:07;;;;;;;7.68;3.10;;;18.40;99.90;;;;;;5096936;28;20077;-77
2022/05/23 03:31:33;;;;;;;11.20;3.72;;;18.30;99.90;;;;;;5097283;28;20028;-75
2022/05/23 03:33:59;;;;;;;8.10;3.47;;;18.30;99.90;;;;;;5097158;28;20048;-76
2022/05/23 03:36:25;;;;;;;4.70;3.13;;;18.30;99.90;;;;;;5097283;28;20103;-75
2022/05/23 03:38:51;;;;;;;16.10;4.03;;;18.20;99.90;;;;;;5092309;28;20024;-76
2022/05/23 03:41:17;;;;;;;7.47;4.38;;;18.20;99.90;;;;;;5087259;28;20024;-76
2022/05/23 03:43:43;;;;;;;8.20;3.83;;;18.10;99.90;;;;;;5097277;28;20063;-75
2022/05/23 03:46:13;;;;;;;7.10;3.47;;;18.10;99.90;;;;;;5095491;28;20051;-76
2022/05/23 03:48:39;;;;;;;13.02;4.10;;;18.10;99.90;;;;;;5096868;28;20541;-76
2022/05/23 03:51:07;;;;;;;9.57;3.45;;;18.10;99.90;;;;;;5095729;28;20038;-75
2022/05/23 03:53:33;;;;;;;10.75;3.95;;;18.00;99.90;;;;;;5096899;28;20024;-75
2022/05/23 03:55:59;;;;;;;13.95;4.97;;;18.00;99.90;;;;;;5096029;28;20468;-75
2022/05/23 03:58:28;;;;;;;7.57;4.00;;;18.00;99.90;;;;;;5096958;28;20024;-75
2022/05/23 04:01:15;;;;;;;13.63;4.25;;;18.00;99.90;;;;;;5095543;28;20039;-76
2022/05/23 04:03:41;;;;;;;8.45;4.15;;;18.00;99.90;;;;;;5097220;28;20388;-75
2022/05/23 04:06:08;;;;;;;8.80;4.45;;;17.90;99.90;;;;;;5096905;28;20024;-74
2022/05/23 04:08:35;;;;;;;11.90;4.50;;;17.80;99.90;;;;;;5095836;28;20020;-75
2022/05/23 04:11:02;;;;;;;13.32;5.07;;;17.80;99.90;;;;;;5096739;28;20088;-75
2022/05/23 04:13:29;;;;;;;7.90;4.05;;;17.80;99.90;;;;;;5096996;28;20020;-75
2022/05/23 04:15:55;;;;;;;10.15;4.43;;;17.80;99.90;;;;;;5089602;28;20082;-75
2022/05/23 04:18:21;;;;;;;11.77;4.55;;;17.70;99.90;;;;;;5096711;28;20105;-75
2022/05/23 04:20:47;;;;;;;9.88;4.40;;;17.70;99.90;;;;;;5095316;28;20028;-75
2022/05/23 04:23:14;;;;;;;6.85;4.15;;;17.70;99.90;;;;;;5095387;28;20031;-75
2022/05/23 04:25:47;;;;;;;9.13;4.30;;;17.70;99.90;;;;;;5096532;28;20039;-75
2022/05/23 04:28:14;;;;;;;11.27;5.22;;;17.70;99.90;;;;;;5095573;28;20472;-75
2022/05/23 04:30:40;;;;;;;11.95;4.72;;;17.70;99.90;;;;;;5096407;28;20031;-75
2022/05/23 04:35:54;;;;;;;13.32;4.70;;;17.70;99.90;;;;;;5096932;28;20031;-75
2022/05/23 04:38:20;;;;;;;8.98;4.65;;;17.70;99.90;;;;;;5100004;28;20024;-75
2022/05/23 04:40:46;;;;;;;12.45;4.43;;;17.70;99.90;;;;;;5085620;28;20024;-75
2022/05/23 04:43:12;;;;;;;7.47;4.60;;;17.70;99.90;;;;;;5099131;28;20107;-75
2022/05/23 04:45:38;;;;;;;12.52;4.78;;;17.80;99.90;;;;;;5098697;28;20036;-75
2022/05/23 04:50:49;;;;;;;9.18;4.05;;;17.80;99.90;;;;;;5100319;28;20035;-77
2022/05/23 04:53:15;;;;;;;10.65;4.18;;;17.90;99.90;;;;;;5099817;28;20099;-75
2022/05/23 04:55:43;;;;;;;9.15;4.25;;;17.90;99.90;;;;;;5098669;28;20024;-75
2022/05/23 04:58:10;;;;;;;8.40;3.95;;;17.90;99.90;;;;;;5099920;28;20055;-76
2022/05/23 05:00:39;;;;;;;11.13;4.35;;;17.80;99.90;;;;;;5099879;28;20035;-75
2022/05/23 05:03:05;;;;;;;10.25;4.30;;;17.80;99.90;;;;;;5095866;28;20016;-75
2022/05/23 05:05:33;;;;;;;10.88;4.30;;;17.80;99.90;;;;;;5089646;28;20024;-75
2022/05/23 05:08:00;;;;;;;11.90;4.53;;;17.70;99.90;;;;;;5099635;28;20017;-75
2022/05/23 05:10:27;;;;;;;10.85;4.72;;;17.80;99.90;;;;;;5098452;28;20103;-75
2022/05/23 05:12:54;;;;;;;8.82;4.63;;;17.70;99.90;;;;;;5098252;28;20055;-75
2022/05/23 05:15:21;;;;;;;14.15;4.63;;;17.70;99.90;;;;;;5094283;28;20523;-75
2022/05/23 05:17:47;;;;;;;7.65;4.38;;;17.70;99.90;;;;;;5096270;28;20055;-77
2022/05/23 05:20:15;;;;;;;10.32;4.70;;;17.70;99.90;;;;;;5099241;28;20020;-75
2022/05/23 05:22:41;;;;;;;11.00;4.18;;;17.70;99.90;;;;;;5097549;28;20123;-76
2022/05/23 05:25:09;;;;;;;10.93;4.72;;;17.70;99.90;;;;;;5099202;28;20052;-75
2022/05/23 05:27:35;;;;;;;15.35;5.70;;;17.70;99.90;;;;;;5098794;28;20032;-76
2022/05/23 05:30:03;;;;;;;7.13;5.03;;;17.60;99.90;;;;;;5097693;28;20032;-76
2022/05/23 05:32:54;;;;;;;14.02;5.90;;;17.50;99.90;;;;;;5096062;28;20173;-75
2022/05/23 05:35:37;;;;;;;15.10;5.75;;;17.40;99.90;;;;;;5099113;28;20031;-76
2022/05/23 05:38:10;;;;;;;13.95;6.13;;;17.40;99.90;;;;;;5088089;28;20017;-76
2022/05/23 05:40:37;;;;;;;17.98;6.80;;;17.30;99.90;;;;;;5082961;28;20028;-76
2022/05/23 05:43:12;;;;;;;11.95;6.95;;;17.30;99.90;;;;;;5097382;28;20056;-76
2022/05/23 05:45:50;;;;;;;12.80;6.15;;;17.20;99.90;;;;;;5098726;28;20433;-75
2022/05/23 05:48:18;;;;;;;16.25;6.88;;;17.20;99.90;;;;;;5096158;28;20030;-76
2022/05/23 05:50:44;;;;;;;16.88;6.07;;;17.20;99.90;;;;;;5098655;28;20138;-76
2022/05/23 05:53:19;;;;;;;14.38;6.32;;;17.30;99.90;;;;;;5097207;28;20024;-75
2022/05/23 05:55:45;;;;;;;13.80;5.78;;;17.30;99.90;;;;;;5097007;28;20020;-75
2022/05/23 05:58:11;;;;;;;14.13;6.38;;;17.30;99.90;;;;;;5097001;28;20380;-75
2022/05/23 06:00:36;;;;;;;14.93;6.55;;;17.30;99.90;;;;;;5097217;28;20031;-75
2022/05/23 06:03:02;;;;;;;19.35;7.00;;;17.30;99.90;;;;;;5096919;28;20104;-75
2022/05/23 06:05:28;;;;;;;18.00;7.53;;;17.40;99.90;;;;;;5098367;28;20059;-77
2022/05/23 06:13:22;;;;;;;18.80;6.07;;;17.30;99.90;;;;;;5098484;28;20027;-75
2022/05/23 06:15:48;;;;;;;19.13;6.20;;;17.30;99.90;;;;;;5085233;28;20100;-75
2022/05/23 06:18:14;;;;;;;19.30;6.53;;;17.30;99.90;;;;;;5096547;28;20108;-75
2022/05/23 06:20:40;;;;;;;18.08;6.13;;;17.30;99.90;;;;;;5096540;28;20460;-75
2022/05/23 06:23:06;;;;;;;19.27;5.80;;;17.30;99.90;;;;;;5096723;28;20027;-77
2022/05/23 06:25:32;;;;;;;22.75;6.22;;;17.40;99.90;;;;;;5096428;28;20024;-76
2022/05/23 06:27:58;;;;;;;19.58;6.38;;;17.30;99.90;;;;;;5097930;28;20024;-75
2022/05/23 06:30:25;;;;;;;16.80;4.80;;;17.40;99.90;;;;;;5097614;28;20035;-75
2022/05/23 06:32:51;;;;;;;17.33;4.93;;;17.40;99.90;;;;;;5098362;28;20056;-75
2022/05/23 06:35:18;;;;;;;16.95;5.20;;;17.40;99.90;;;;;;5097589;28;20027;-75
2022/05/23 06:37:44;;;;;;;15.20;5.05;;;17.50;99.90;;;;;;5097798;28;20452;-75
2022/05/23 06:40:13;;;;;;;17.88;4.55;;;17.50;99.90;;;;;;5084002;28;20033;-75
2022/05/23 06:42:39;;;;;;;11.48;4.95;;;17.50;99.90;;;;;;5097682;28;20540;-76
2022/05/23 06:45:07;;;;;;;14.68;5.25;;;17.50;99.90;;;;;;5095832;28;20050;-75
2022/05/23 06:47:34;;;;;;;12.77;4.85;;;17.50;99.90;;;;;;5096862;28;20412;-75
2022/05/23 06:50:00;;;;;;;12.95;4.68;;;17.50;99.90;;;;;;5095834;28;20024;-76
2022/05/23 06:52:25;;;;;;;15.73;4.80;;;17.60;99.90;;;;;;5096024;28;20047;-76
2022/05/23 06:54:51;;;;;;;13.98;4.78;;;17.60;99.90;;;;;;5097425;28;20032;-76
2022/05/23 06:57:17;;;;;;;11.80;4.72;;;17.60;99.90;;;;;;5096010;28;20016;-76
2022/05/23 06:59:43;;;;;;;12.88;4.80;;;17.60;99.90;;;;;;5096776;28;20047;-76
2022/05/23 07:02:09;;;;;;;14.55;5.38;;;17.60;99.90;;;;;;5097300;28;20853;-76
2022/05/23 07:12:50;;;;;;;23.35;5.70;;;17.60;99.90;;;;;;5096662;28;20153;-75
2022/05/23 07:15:16;;;;;;;18.85;6.25;;;17.60;99.90;;;;;;5092681;28;20044;-77
2022/05/23 07:17:42;;;;;;;12.68;5.78;;;17.60;99.90;;;;;;5079528;28;20020;-76
2022/05/23 07:20:08;;;;;;;15.18;5.03;;;17.60;99.90;;;;;;5097039;28;20495;-76
2022/05/23 07:22:34;;;;;;;15.65;5.35;;;17.60;99.90;;;;;;5096921;28;20098;-77
2022/05/23 07:25:01;;;;;;;12.52;4.15;;;17.70;99.90;;;;;;5095510;28;20066;-76
2022/05/23 07:27:28;;;;;;;14.50;5.28;;;17.70;99.90;;;;;;5096688;28;20024;-75
2022/05/23 07:29:55;;;;;;;13.35;4.50;;;17.70;99.90;;;;;;5095180;28;20032;-75
2022/05/23 07:32:21;;;;;;;17.35;4.82;;;17.70;99.90;;;;;;5096389;28;20028;-76
2022/05/23 07:34:46;;;;;;;9.55;4.25;;;17.70;99.90;;;;;;5097251;28;20031;-77
2022/05/23 07:37:15;;;;;;;16.27;4.63;;;17.70;99.90;;;;;;5096654;28;20016;-76
2022/05/23 07:39:41;;;;;;;11.20;4.20;;;17.70;99.90;;;;;;5076490;28;20127;-75
2022/05/23 07:42:08;;;;;;;15.63;4.63;;;17.70;99.90;;;;;;5094947;28;20024;-75
2022/05/23 07:44:36;;;;;;;20.67;4.38;;;17.80;99.90;;;;;;5096417;28;20028;-78
2022/05/23 07:47:03;;;;;;;13.75;5.72;;;17.90;99.90;;;;;;5096305;28;20040;-76
2022/05/23 07:49:29;;;;;;;12.00;4.68;;;17.90;99.90;;;;;;5095306;28;20051;-76
2022/05/23 07:51:56;;;;;;;12.75;4.32;;;18.00;99.90;;;;;;5096474;28;20465;-77
2022/05/23 08:02:38;;;;;;;14.82;4.63;;;17.80;99.90;;;;;;5096277;28;20062;-77
2022/05/23 08:05:05;;;;;;;8.43;4.13;;;17.80;99.90;;;;;;5096512;28;20403;-76
2022/05/23 08:07:31;;;;;;;13.23;4.85;;;17.80;99.90;;;;;;5096771;28;20042;-76
2022/05/23 08:10:00;;;;;;;18.08;5.75;;;17.90;99.90;;;;;;5096515;28;20035;-77
2022/05/23 08:12:30;;;;;;;15.13;5.00;;;18.00;99.90;;;;;;5099769;28;20020;-76
2022/05/23 08:14:57;;;;;;;15.05;4.38;;;18.10;99.90;;;;;;5098760;28;20085;-76
2022/05/23 08:17:23;;;;;;;18.05;4.88;;;18.20;99.90;;;;;;5094216;28;20099;-75
2022/05/23 08:19:49;;;;;;;15.48;4.50;;;18.30;99.90;;;;;;5100501;28;20058;-76
2022/05/23 08:22:17;;;;;;;13.68;4.22;;;18.30;99.90;;;;;;5099030;28;20028;-76
2022/05/23 08:24:42;;;;;;;13.95;4.63;;;18.30;99.90;;;;;;5099170;28;20122;-76
2022/05/23 08:27:09;;;;;;;13.45;4.13;;;18.30;99.90;;;;;;5098909;28;20051;-77
2022/05/23 08:29:36;;;;;;;18.52;4.85;;;18.20;99.90;;;;;;5098533;28;20407;-75
2022/05/23 08:32:04;;;;;;;17.33;4.35;;;18.20;99.90;;;;;;5098203;28;20070;-76
2022/05/23 08:34:31;;;;;;;15.13;4.72;;;18.10;99.90;;;;;;5100049;28;20020;-76
2022/05/23 08:36:58;;;;;;;16.02;4.63;;;18.00;99.90;;;;;;5099861;28;20024;-75
2022/05/23 08:39:25;;;;;;;18.10;4.78;;;17.90;99.90;;;;;;5090685;28;20039;-76
2022/05/23 08:41:52;;;;;;;10.07;3.92;;;17.90;99.90;;;;;;5094696;28;20368;-80
2022/05/23 08:44:24;;;;;;;12.95;4.68;;;18.00;99.90;;;;;;5099809;28;20020;-79
2022/05/23 08:46:57;;;;;;;16.25;4.68;;;18.00;99.90;;;;;;5099394;28;20052;-80
2022/05/23 08:50:04;;;;;;;12.30;4.50;;;18.00;99.90;;;;;;5098368;28;20472;-80
2022/05/23 08:52:58;;;;;;;16.92;4.85;;;18.10;99.90;;;;;;5077589;28;20135;-78
2022/05/23 08:55:34;;;;;;;12.35;4.53;;;18.30;99.90;;;;;;5098606;28;20388;-79
2022/05/23 08:58:08;;;;;;;12.07;4.78;;;18.30;99.90;;;;;;5099517;28;20036;-80
2022/05/23 09:00:42;;;;;;;15.52;3.70;;;18.30;99.90;;;;;;5097970;28;20077;-78
2022/05/23 09:03:45;;;;;;;21.85;3.83;;;18.30;99.90;;;;;;5099395;28;20024;-79
2022/05/23 09:06:23;;;;;;;9.15;3.75;;;18.30;99.90;;;;;;5083191;28;20135;-77
2022/05/23 09:08:53;;;;;;;9.77;3.22;;;18.40;99.90;;;;;;5099503;28;20519;-78
2022/05/23 09:11:30;;;;;;;12.50;3.65;;;18.50;99.90;;;;;;5099314;28;20020;-79
2022/05/23 09:13:56;;;;;;;11.30;3.60;;;18.60;99.90;;;;;;5099214;28;20023;-79
2022/05/23 09:16:40;;;;;;;9.40;4.38;;;18.80;99.90;;;;;;5092068;28;20057;-79
2022/05/23 09:19:43;;;;;;;9.98;3.63;;;19.00;99.90;;;;;;5099147;28;20080;-80
2022/05/23 09:22:15;;;;;;;11.48;3.50;;;18.90;99.90;;;;;;5097815;28;20024;-78
2022/05/23 09:24:58;;;;;;;15.52;4.13;;;18.80;99.90;;;;;;5098062;28;20024;-81
2022/05/23 09:27:53;;;;;;;10.02;3.42;;;18.80;99.90;;;;;;5088902;28;20024;-79
2022/05/23 09:30:27;;;;;;;5.85;2.97;;;18.90;99.90;;;;;;5082499;28;20039;-80
2022/05/23 09:33:02;;;;;;;14.00;3.15;;;19.10;99.90;;;;;;5097289;28;20032;-80
2022/05/23 09:35:41;;;;;;;8.05;2.40;;;19.20;99.90;;;;;;5098443;28;20046;-80
2022/05/23 09:38:23;;;;;;;7.85;2.65;;;19.30;99.90;;;;;;5098692;28;20028;-80
2022/05/23 09:40:50;;;;;;;10.35;3.88;;;19.20;99.90;;;;;;5073011;28;20454;-80
2022/05/23 09:49:18;;;;;;;9.98;3.65;;;19.20;99.90;;;;;;5098581;28;20039;-80
2022/05/23 09:52:13;;;;;;;10.13;3.08;;;19.40;99.90;;;;;;5096965;28;20030;-79
2022/05/23 09:54:45;;;;;;;7.85;2.80;;;19.70;99.90;;;;;;5098391;28;20024;-79
2022/05/23 09:57:25;;;;;;;5.75;1.85;;;19.60;99.90;;;;;;5098622;28;20103;-79
2022/05/23 10:00:22;;;;;;;4.03;1.95;;;19.50;99.90;;;;;;5096939;28;20081;-81
2022/05/23 10:02:53;;;;;;;8.45;2.20;;;19.50;99.90;;;;;;5072097;28;20035;-80
2022/05/23 10:05:36;;;;;;;6.30;2.10;;;19.60;99.90;;;;;;5098636;28;20032;-81
2022/05/23 10:08:06;;;;;;;11.10;2.83;;;19.70;99.90;;;;;;5096952;28;20536;-82
2022/05/23 10:10:34;;;;;;;13.93;3.50;;;19.70;99.90;;;;;;5096724;28;20028;-83
2022/05/23 10:13:24;;;;;;;9.40;3.45;;;19.90;99.90;;;;;;5096502;28;20039;-82
2022/05/23 10:16:12;;;;;;;11.03;2.63;;;19.70;99.90;;;;;;5091212;28;20077;-82
2022/05/23 10:18:51;;;;;;;9.25;2.78;;;19.80;99.90;;;;;;5096707;28;20526;-80
2022/05/23 10:21:36;;;;;;;10.32;3.05;;;19.70;99.90;;;;;;5098013;28;20459;-82
2022/05/23 10:24:16;;;;;;;9.10;2.70;;;19.80;99.90;;;;;;5096477;28;20031;-82
2022/05/23 10:26:51;;;;;;;5.93;2.90;;;19.90;99.90;;;;;;5096839;28;20055;-82
2022/05/23 10:29:29;;;;;;;11.23;3.50;;;20.30;99.90;;;;;;5097588;28;20032;-82
2022/05/23 10:32:07;;;;;;;10.00;3.22;;;20.40;99.90;;;;;;5096338;28;20047;-81
2022/05/23 10:34:45;;;;;;;9.98;3.30;;;20.60;99.90;;;;;;5095914;28;20048;-81
2022/05/23 10:37:20;;;;;;;11.48;3.22;;;20.50;99.90;;;;;;5097691;28;20024;-81
2022/05/23 10:42:45;;;;;;;9.80;3.17;;;20.20;99.90;;;;;;5085568;28;20051;-81
2022/05/23 10:45:22;;;;;;;12.60;2.70;;;20.20;99.90;;;;;;5097388;28;20107;-81
2022/05/23 10:47:58;;;;;;;10.90;2.85;;;20.10;99.90;;;;;;5095941;28;20047;-81
2022/05/23 10:50:23;;;;;;;6.53;2.85;;;20.10;99.90;;;;;;5096241;28;20488;-82
2022/05/23 10:53:05;;;;;;;7.68;2.67;;;20.00;99.90;;;;;;5096396;28;20024;-81
2022/05/23 10:55:43;;;;;;;9.80;2.95;;;20.00;99.90;;;;;;5097647;28;20024;-82
2022/05/23 10:58:42;;;;;;;11.77;2.60;;;20.10;99.90;;;;;;5097484;28;20092;-80
2022/05/23 11:01:31;;;;;;;5.53;3.00;;;20.40;99.90;;;;;;5095429;28;20051;-82
2022/05/23 11:04:45;;;;;;;6.25;2.13;;;20.50;99.90;;;;;;5047887;28;20320;-82
2022/05/23 11:07:44;;;;;;;8.65;2.30;;;20.40;99.90;;;;;;5017095;28;20034;-80
2022/05/23 11:10:34;;;;;;;5.18;1.85;;;20.30;99.90;;;;;;5024683;28;20033;-78
2022/05/23 11:13:31;;;;;;;6.78;2.60;;;20.30;99.90;;;;;;5075724;28;20314;-81
2022/05/23 11:16:18;;;;;;;6.07;2.17;;;20.30;99.90;;;;;;5085468;28;20020;-82
2022/05/23 11:19:10;;;;;;;4.72;1.80;;;20.30;99.90;;;;;;5089189;28;20028;-81
2022/05/23 11:21:47;;;;;;;5.97;2.08;;;19.90;99.90;;;;;;5095678;28;20035;-81
2022/05/23 11:24:35;;;;;;;5.40;1.52;;;19.50;99.90;;;;;;5096950;28;20107;-81
2022/05/23 11:35:42;;;;;;;9.35;2.75;;;18.80;99.90;;;;;;5097068;28;20105;-81
2022/05/23 11:38:09;;;;;;;6.03;2.58;;;18.60;99.90;;;;;;5095480;28;20024;-82
2022/05/23 11:40:38;;;;;;;5.75;2.38;;;18.60;99.90;;;;;;5082865;28;20024;-81
2022/05/23 11:43:10;;;;;;;9.38;3.15;;;18.80;99.90;;;;;;5095660;28;20039;-81
2022/05/23 11:48:39;;;;;;;9.18;2.60;;;19.30;99.90;;;;;;5046856;28;20044;-81
2022/05/23 11:51:11;;;;;;;9.90;3.38;;;19.40;99.90;;;;;;5075345;28;20024;-80
2022/05/23 11:53:42;;;;;;;8.90;2.55;;;19.50;99.90;;;;;;5100051;28;20107;-81
2022/05/23 11:56:10;;;;;;;10.95;2.75;;;19.50;99.90;;;;;;5100960;28;20076;-82
2022/05/23 11:58:49;;;;;;;17.05;3.55;;;19.60;99.90;;;;;;5101201;28;20028;-78
2022/05/23 12:01:19;;;;;;;9.73;3.53;;;19.80;99.90;;;;;;5100360;28;20031;-81
2022/05/23 12:03:51;;;;;;;9.82;2.83;;;20.10;99.90;;;;;;5097270;28;20043;-80
2022/05/23 12:06:23;;;;;;;10.15;3.42;;;20.10;99.90;;;;;;5100660;28;20391;-81
2022/05/23 12:09:06;;;;;;;10.68;2.47;;;20.40;99.90;;;;;;5100654;28;20077;-79
2022/05/23 12:11:46;;;;;;;17.00;3.80;;;20.60;99.90;;;;;;5100857;28;20016;-81
2022/05/23 12:14:19;;;;;;;15.63;3.05;;;20.90;99.90;;;;;;5098949;28;20480;-81
2022/05/23 12:17:06;;;;;;;7.90;3.22;;;21.00;99.90;;;;;;5092856;28;20016;-76
2022/05/23 12:19:38;;;;;;;13.25;3.40;;;20.90;99.90;;;;;;5099179;28;20395;-77
2022/05/23 12:22:57;;;;;;;15.05;3.40;;;20.70;99.90;;;;;;5100248;28;20024;-76
2022/05/23 12:25:25;;;;;;;9.25;3.13;;;20.90;99.90;;;;;;5056654;28;20033;-76
2022/05/23 12:27:51;;;;;;;11.35;2.42;;;20.80;99.90;;;;;;5057831;28;20028;-76
2022/05/23 12:30:17;;;;;;;7.95;2.53;;;20.70;99.90;;;;;;5066826;28;20040;-76
2022/05/23 12:33:03;;;;;;;9.00;2.88;;;20.50;99.90;;;;;;5098663;28;20115;-76
2022/05/23 12:35:41;;;;;;;13.73;3.15;;;20.30;99.90;;;;;;5092653;28;20051;-75
2022/05/23 12:38:16;;;;;;;19.60;2.97;;;20.20;99.90;;;;;;5100259;28;20034;-76
2022/05/23 12:41:00;;;;;;;13.57;2.83;;;20.10;99.90;;;;;;5084762;28;20024;-75
2022/05/23 12:43:41;;;;;;;14.52;3.25;;;20.10;99.90;;;;;;5099764;28;20104;-76
2022/05/23 12:46:32;;;;;;;15.98;3.28;;;20.10;99.90;;;;;;5099537;28;20044;-75
2022/05/23 12:49:18;;;;;;;16.13;3.17;;;20.10;99.90;;;;;;5099790;28;20028;-76
2022/05/23 12:52:05;;;;;;;13.40;3.03;;;19.80;99.90;;;;;;5099706;28;20036;-75
2022/05/23 12:54:52;;;;;;;14.88;3.38;;;19.70;99.90;;;;;;5099707;28;20028;-76
2022/05/23 12:57:24;;;;;;;10.82;3.20;;;19.60;99.90;;;;;;5099128;28;20176;-76
2022/05/23 12:59:55;;;;;;;13.40;3.15;;;19.50;99.90;;;;;;5099450;28;20044;-76
2022/05/23 13:02:53;;;;;;;14.00;3.33;;;19.40;99.90;;;;;;5099375;28;20038;-76
2022/05/23 13:05:43;;;;;;;12.02;2.90;;;19.30;99.90;;;;;;5099569;28;20124;-77
2022/05/23 13:08:40;;;;;;;16.47;3.73;;;19.20;99.90;;;;;;5099319;28;20108;-75
2022/05/23 13:11:11;;;;;;;16.58;2.97;;;19.20;99.90;;;;;;5099333;28;20028;-76
2022/05/23 13:13:41;;;;;;;12.93;3.08;;;19.10;99.90;;;;;;5098252;28;20032;-76
2022/05/23 13:16:25;;;;;;;14.50;2.83;;;19.10;99.90;;;;;;5086093;28;20096;-76
2022/05/23 13:27:33;;;;;;;12.48;2.65;;;19.60;99.90;;;;;;5056588;28;20436;-75
2022/05/23 13:30:20;;;;;;;12.10;3.70;;;19.90;99.90;;;;;;5084362;28;20032;-76
2022/05/23 13:33:08;;;;;;;18.30;2.95;;;20.10;99.90;;;;;;5087030;28;20023;-75
2022/05/23 13:35:35;;;;;;;13.82;3.20;;;20.30;99.90;;;;;;5096011;28;20024;-76
2022/05/23 13:38:24;;;;;;;9.50;2.78;;;20.50;99.90;;;;;;5088517;28;20028;-75
2022/05/23 13:40:52;;;;;;;8.45;2.78;;;20.90;99.90;;;;;;5074174;28;20077;-76
2022/05/23 13:43:33;;;;;;;10.55;3.45;;;20.90;99.90;;;;;;5082219;28;20017;-76
2022/05/23 13:46:02;;;;;;;15.20;3.63;;;21.50;99.90;;;;;;5081102;28;20123;-75
2022/05/23 13:48:48;;;;;;;14.95;3.22;;;22.10;99.90;;;;;;5089191;28;20499;-74
2022/05/23 13:51:23;;;;;;;8.38;2.42;;;22.70;99.90;;;;;;5085530;28;20025;-75
2022/05/23 13:53:57;;;;;;;12.32;2.97;;;22.70;99.90;;;;;;5086226;28;20488;-76
2022/05/23 13:56:25;;;;;;;8.18;2.30;;;22.60;99.90;;;;;;5097070;28;20031;-77
2022/05/23 13:58:58;;;;;;;7.95;2.63;;;22.20;99.90;;;;;;5096797;28;20038;-76
2022/05/23 14:01:36;;;;;;;10.93;3.30;;;22.00;99.90;;;;;;5088023;28;20024;-76
2022/05/23 14:04:07;;;;;;;12.18;2.88;;;21.80;99.90;;;;;;5097401;28;20032;-76
2022/05/23 14:06:38;;;;;;;14.43;3.22;;;21.30;99.90;;;;;;5097872;28;20028;-74
2022/05/23 14:09:06;;;;;;;10.43;2.70;;;21.10;99.90;;;;;;5095953;28;20028;-75
2022/05/23 14:11:53;;;;;;;8.27;3.17;;;21.00;99.90;;;;;;5090380;28;20060;-76